Мобильная версия
Войти

[правила] [список форумов]

Рубрика: Об авиации

UUWW-опять коллапсом пахнет

 ↓ ВНИЗ

Harrier форум
Старожил форума
04.02.2013 15:48
UUWW 041130Z 33007MPS 0350 R01/0650V0750N +SHSN VV002 M02/M03 Q0992 01551035 TEMPO 0500 +SHSN BKN002 BKN010CB RMK QBB070
TAF AMD UUWW 041120Z 0411/0512 33005G10MPS 0700 +SN OVC003
TEMPO 0411/0419 0300 +SHSN BKN002 BKN012CB
BECMG 0417/0419 1100 BR BKN004
TEMPO 0419/0506 0300 FZFG VV001
Harrier форум
Старожил форума
04.02.2013 15:50
Это не претензия Внуково конешно,но пассажиры опять сядут за айпады и напишут,что у Природы нет плохой погоды
Кадет
Старожил форума
04.02.2013 16:23
Та ладно, ФАК давно выяснил, это в Европе от такого коллапс. А для МАУ - семечки.
Никуда
Старожил форума
04.02.2013 16:31
Вы по МКАДу давно ездили?
Harrier форум
Старожил форума
04.02.2013 17:39
А для МАУ - семечки

Кубанские??))


 

 

 

 

Чтобы публиковать комментарии, вы должны войти на сайт.

Реклама на сайте Обратная связь/Связаться с администрацией
Рейтинг@Mail.ru